Chickering American River Reserve, California Weather observations

Data are for 10 minute period ending at time listed.
 Day   Time   Solar   Ave.   Ave.  Ave.  Vector  Max.   Baro.   Total    
  of    of     Rad.   Air    Rel.  Wind   Wind   Wind  Press.  Precip.   
Year   Day            Temp.  Hum.  Speed  Dir.   Gust                    
2015   (PST)  Kw/m2    F      %     mph   deg.    mph    mb.     in.     
-------------------------------------------------------------------------
 142    0:00   0.00   42.3    96    0.0   194     0.3   815.4    0.00 
 142    0:10   0.00   42.5    96    0.0     0     0.0   815.4    0.00 
 142    0:20   0.00   42.5    96    0.0     0     0.0   815.5    0.00 
 142    0:30   0.00   42.5    96    0.0     0     0.0   815.4    0.00 
 142    0:40   0.00   42.4    96    0.0     0     0.0   815.3    0.00 
 142    0:50   0.00   42.3    96    0.0     0     0.0   815.3    0.00 
 142    1:00   0.00   42.3    97    0.0     0     0.0   815.2    0.00 
 142    1:10   0.00   42.4    96    0.0     0     0.0   815.2    0.00 
 142    1:20   0.00   42.5    96    0.0     0     0.0   815.2    0.00 
 142    1:30   0.00   42.5    96    0.0     0     0.0   815.2    0.00 
 142    1:40   0.00   42.6    96    0.0     0     0.0   815.3    0.00 
 142    1:50   0.00   42.5    96    0.0     0     0.0   815.3    0.00 
 142    2:00   0.00   42.6    96    0.0     0     0.0   815.3    0.00 
 142    2:10   0.00   42.4    97    0.0     0     0.0   815.3    0.00 
 142    2:20   0.00   42.4    97    0.0     0     0.0   815.3    0.00 
 142    2:30   0.00   42.4    97    0.0     0     0.0   815.3    0.00 
 142    2:40   0.00   42.4    97    0.0     0     0.0   815.2    0.00 
 142    2:50   0.00   42.2    97    0.0     0     0.0   815.2    0.00 
 142    3:00   0.00   42.2    97    0.0     0     0.0   815.1    0.00 
 142    3:10   0.00   42.2    98    0.0     0     0.0   815.1    0.00 
 142    3:20   0.00   42.1    98    0.0     0     0.0   815.2    0.00 
 142    3:30   0.00   42.1    98    0.0     0     0.0   815.2    0.00 
 142    3:40   0.00   42.1    98    0.0     0     0.0   815.2    0.00 
 142    3:50   0.00   42.1    98    0.0     0     0.0   815.3    0.00 
 142    4:00   0.00   42.2    98    0.0    23     0.3   815.2    0.00 
 142    4:10   0.00   42.1    98    0.0    59     0.5   815.2    0.00 
 142    4:20   0.00   42.1    98    0.0     0     0.0   815.2    0.00 
 142    4:30   0.00   42.0    98    0.0     7     0.7   815.2    0.00 
 142    4:40   0.00   41.9    98    0.0     0     0.0   815.2    0.00 
 142    4:50   0.00   42.0    98    0.0     0     0.0   815.3    0.00 
 142    5:00   0.00   41.9    98    0.0     0     0.0   815.3    0.00 
 142    5:10   0.00   41.9    98    0.0     0     0.0   815.3    0.00 
 142    5:20   0.01   41.9    98    0.0    56     0.8   815.3    0.00 
 142    5:30   0.00   41.9    98    0.0    54     0.4   815.3    0.00 
 142    5:40   0.01   42.0    98    0.2    50     1.5   815.3    0.00 
 142    5:50   0.01   42.1    98    0.6    40     2.3   815.4    0.00 
 142    6:00   0.01   42.0    98    0.3    21     2.3   815.5    0.00 
 142    6:10   0.03   42.0    98    0.4   346     2.1   815.6    0.00 
 142    6:20   0.03   42.1    98    0.0     0     0.0   815.7    0.00 
 142    6:30   0.04   42.6    98    0.4    50     2.0   815.7    0.00 
 142    6:40   0.03   42.5    98    0.9    56     2.2   815.7    0.00 
 142    6:50   0.04   42.4    98    0.5    47     2.0   815.9    0.00 
 142    7:00   0.04   42.5    98    0.4    93     1.8   815.9    0.00 
 142    7:10   0.07   42.6    98    0.4    60     1.7   815.9    0.00 
 142    7:20   0.05   42.7    98    0.6    56     1.8   816.0    0.00 
 142    7:30   0.04   42.8    98    0.5    53     2.0   816.1    0.00 
 142    7:40   0.06   42.9    98    0.4    79     2.0   816.2    0.00 
 142    7:50   0.08   43.1    98    0.6     2     1.2   816.2    0.00 
 142    8:00   0.09   43.5    98    0.2    11     1.3   816.2    0.00 
 142    8:10   0.11   43.8    97    0.4    64     2.0   816.2    0.00 
 142    8:20   0.10   44.1    97    1.2    45     2.7   816.2    0.00 
 142    8:30   0.23   44.2    97    0.8    73     2.9   816.2    0.00 
 142    8:40   0.23   44.9    96    1.1    46     4.2   816.1    0.00 
 142    8:50   0.26   45.6    94    0.7    29     2.7   816.2    0.00 
 142    9:00   0.21   46.2    94    0.8    57     2.0   816.2    0.00 
 142    9:10   0.19   46.4    94    1.1    48     3.8   816.2    0.00 
 142    9:20   0.12   46.4    95    1.5    52     4.5   816.2    0.00 
 142    9:30   0.19   46.1    95    1.7    46     3.8   816.2    0.00 
 142    9:40   0.28   46.1    93    1.2    45     2.7   816.2    0.00 
 142    9:50   0.40   47.0    93    0.7    45     2.9   816.2    0.00 
 142   10:00   0.41   48.4    90    1.2     7     2.3   816.2    0.00 
 142   10:10   0.25   49.1    89    1.1    49     4.3   816.3    0.00 
 142   10:20   0.23   48.8    92    1.0    20     2.9   816.3    0.00 
 142   10:30   0.32   48.5    88    1.0   358     3.3   816.3    0.00 
 142   10:40   0.44   49.4    89    1.0    24     2.3   816.4    0.00 
 142   10:50   0.50   50.2    80    0.8   104     2.5   816.3    0.00 
 142   11:00   0.75   51.7    83    1.8    60     3.7   816.3    0.00 
 142   11:10   0.69   51.9    79    1.2    54     4.1   816.1    0.00 
 142   11:20   0.65   52.7    80    1.5    16     4.6   816.0    0.00 
 142   11:30   1.06   52.8    81    3.2   343     7.1   815.9    0.00 
 142   11:40   0.63   53.1    81    2.7     4     8.8   816.0    0.00 
 142   11:50   0.16   51.1    85    1.6    32     4.7   816.0    0.00 
 142   12:00   0.05   49.4    90    1.6    30     4.6   816.1    0.00 
 142   12:10   0.03   48.3    92    1.0    57     2.7   816.3    0.00 
 142   12:20   0.06   47.2    94    1.8    70     3.2   816.3    0.00 
 142   12:30   0.09   47.2    94    0.7    33     2.8   816.3    0.00 
 142   12:40   0.09   46.7    92    1.5    35     4.5   816.4    0.00 
 142   12:50   0.10   45.7    92    1.4     5     3.7   816.4    0.00 
 142   13:00   0.06   45.5    93    0.3     2     1.6   816.5    0.00 
 142   13:10   100.00  99999.0   99999  99999.0   99999   99999.0   99999.0   99999.00 
 142   13:20   100.00  99999.0   99999  99999.0   99999   99999.0   99999.0   99999.00 
 142   13:30   100.00  99999.0   99999  99999.0   99999   99999.0   99999.0   99999.00 
 142   13:40   100.00  99999.0   99999  99999.0   99999   99999.0   99999.0   99999.00 
 142   13:50   100.00  99999.0   99999  99999.0   99999   99999.0   99999.0   99999.00 
 142   14:00   100.00  99999.0   99999  99999.0   99999   99999.0   99999.0   99999.00 
 142   14:10   0.11   45.4    95    0.5    13     2.1   816.5    0.00 
 142   14:20   0.06   45.7    96    0.8     8     3.4   816.6    0.00 
 142   14:30   0.12   45.6    95    0.3    82     1.6   816.5    0.00 
 142   14:40   0.25   46.2    94    0.7   109     2.3   816.5    0.00 
 142   14:50   0.13   46.8    94    0.8    50     2.0   816.4    0.00 
 142   15:00   0.09   47.1    96    1.1    43     3.1   816.5    0.00 
 142   15:10   0.04   46.8    95    0.7    26     2.4   816.6    0.00 
 142   15:20   0.04   46.4    95    0.8    80     2.8   816.7    0.00 
 142   15:30   0.03   46.0    96    1.1     3     3.5   816.6    0.00 
 142   15:40   0.02   45.8    97    0.7    32     2.7   816.7    0.00 
 142   15:50   0.02   45.7    96    0.1    80     0.8   816.8    0.00 
 142   16:00   0.04   45.8    97    0.7    47     2.9   816.6    0.00 
 142   16:10   0.03   45.6    96    0.9    32     2.6   816.6    0.00 
 142   16:20   0.03   45.6    97    0.6    58     2.3   816.7    0.00 
 142   16:30   0.07   45.6    97    0.7    40     2.6   816.8    0.00 
 142   16:40   0.03   45.9    97    0.9    94     2.8   816.8    0.00 
 142   16:50   0.03   45.7    97    0.7    80     3.5   816.9    0.00 
 142   17:00   0.02   45.7    97    0.9    38     2.6   816.9    0.00 
 142   17:10   0.01   45.4    96    0.9    27     3.1   816.9    0.00 
 142   17:20   0.01   45.3    96    0.8    43     3.0   816.9    0.00 
 142   17:30   0.03   45.4    97    0.4    35     2.3   816.9    0.00 
 142   17:40   0.02   45.4    97    0.6    39     1.9   817.0    0.00 
 142   17:50   0.01   45.5    97    0.2    70     1.2   817.1    0.00 
 142   18:00   0.01   45.4    97    0.4    70     1.3   817.1    0.00 
 142   18:10   0.01   45.2    97    0.8    31     1.8   817.2    0.00 
 142   18:20   0.01   45.2    97    0.2    48     2.2   817.2    0.00 
 142   18:30   0.01   45.1    97    0.1    28     0.9   817.3    0.00 
 142   18:40   0.00   45.0    97    0.1    50     0.8   817.3    0.00 
 142   18:50   0.00   44.9    97    0.1    29     0.9   817.3    0.00 
 142   19:00   0.00   45.0    98    0.0    69     0.4   817.4    0.00 
 142   19:10   0.00   45.0    98    0.0     0     0.0   817.5    0.00 
 142   19:20   0.00   45.0    98    0.0     0     0.0   817.5    0.00 
 142   19:30   0.00   45.0    98    0.3    58     1.5   817.5    0.00 
 142   19:40   0.00   44.9    98    0.0     0     0.0   817.5    0.00 
 142   19:50   0.00   44.9    98    0.0    18     0.7   817.6    0.00 
 142   20:00   0.00   44.9    98    0.0     0     0.0   817.7    0.00 
 142   20:10   0.00   44.8    98    0.2    57     1.2   817.7    0.00 
 142   20:20   0.00   44.8    98    0.1    53     1.0   817.7    0.00 
 142   20:30   0.00   44.9    98    0.0     0     0.0   817.8    0.00 
 142   20:40   0.00   44.8    98    0.0     0     0.0   818.0    0.00 
 142   20:50   0.00   44.8    98    0.1    64     1.1   818.0    0.00 
 142   21:00   0.00   44.6    98    0.1    48     0.7   818.2    0.00 
 142   21:10   0.00   44.5    98    0.0    68     0.5   818.2    0.00 
 142   21:20   0.00   44.7    98    0.0     0     0.0   818.2    0.00 
 142   21:30   0.00   44.7    98    0.0     0     0.0   818.3    0.00 
 142   21:40   0.00   44.8    98    0.0     0     0.0   818.3    0.00 
 142   21:50   0.00   44.7    98    0.0     0     0.0   818.3    0.00 
 142   22:00   0.00   44.7    98    0.0     0     0.0   818.3    0.00 

Return to Chickering American River Reserve graphs page.


Western Regional Climate Center,wrcc@dri.edu